Time;durP1;ratioP1;P1;durP2;ratioP2;P2;SDS_P1;SDS_P2;PMS_P1;PMS_P2;Temp;Humidity;BMP_temperature;BMP_pressure;BME280_temperature;BME280_humidity;BME280_pressure;Samples;Min_cycle;Max_cycle;Signal;HPM_P1;HPM_P2
2022/07/05 00:00:37;;;;;;;;;;;;;;;-140.72;100.00;52415.22;5021674;28;19968;-68
2022/07/05 00:03:03;;;;;;;;;;;;;;;-140.72;100.00;52421.28;5027150;28;19918;-68
2022/07/05 00:05:28;;;;;;;;;;;;;;;-140.72;100.00;52396.94;5023958;28;19906;-66
2022/07/05 00:07:54;;;;;;;;;;;;;;;-140.72;100.00;52435.50;5022570;28;19930;-68
2022/07/05 00:10:19;;;;;;;;;;;;;;;-140.72;100.00;52390.84;5026669;28;19924;-68
2022/07/05 00:12:44;;;;;;;;;;;;;;;-140.72;100.00;52374.63;5027499;28;19917;-70
2022/07/05 00:15:10;;;;;;;;;;;;;;;-140.72;100.00;52372.59;5023268;28;19914;-68
2022/07/05 00:17:35;;;;;;;;;;;;;;;-140.72;100.00;52417.25;5030475;28;19918;-68
2022/07/05 00:20:00;;;;;;;;;;;;;;;-140.72;100.00;52407.09;5032525;28;19935;-69
2022/07/05 00:22:26;;;;;;;;;;;;;;;-140.72;100.00;52407.09;5035466;28;19981;-69
2022/07/05 00:24:51;;;;;;;;;;;;;;;-140.72;100.00;52380.72;5033238;28;19925;-68
2022/07/05 00:27:16;;;;;;;;;;;;;;;-140.72;100.00;52386.81;5027548;28;20272;-68
2022/07/05 00:29:41;;;;;;;;;;;;;;;-140.72;100.00;52403.03;5033026;28;19955;-68
2022/07/05 00:32:07;;;;;;;;;;;;;;;-140.72;100.00;52419.28;5032766;28;19905;-70
2022/07/05 00:34:32;;;;;;;;;;;;;;;-140.72;100.00;52415.22;5033656;28;19986;-67
2022/07/05 00:36:57;;;;;;;;;;;;;;;-140.72;100.00;52433.47;5033469;28;19917;-68
2022/07/05 00:39:23;;;;;;;;;;;;;;;-140.72;100.00;52425.34;5032031;28;19976;-68
2022/07/05 00:41:48;;;;;;;;;;;;;;;-140.72;100.00;52429.41;5034579;28;20339;-69
2022/07/05 00:44:14;;;;;;;;;;;;;;;-140.72;100.00;52421.28;5034173;28;20090;-70
2022/07/05 00:46:41;;;;;;;;;;;;;;;-140.72;100.00;52423.31;5027045;28;19918;-68
2022/07/05 00:49:06;;;;;;;;;;;;;;;-140.72;100.00;52407.09;5028768;28;19917;-70
2022/07/05 00:51:33;;;;;;;;;;;;;;;-140.72;100.00;52415.22;5032053;28;19917;-68
2022/07/05 00:53:59;;;;;;;;;;;;;;;-140.72;100.00;52398.97;5027546;28;19917;-70
2022/07/05 00:56:25;;;;;;;;;;;;;;;-140.72;100.00;52455.78;5024854;28;19921;-67
2022/07/05 00:58:50;;;;;;;;;;;;;;;-140.72;100.00;52384.78;5028133;28;19929;-68
2022/07/05 01:01:16;;;;;;;;;;;;;;;-140.72;100.00;52415.22;5022634;28;19925;-68
2022/07/05 01:03:41;;;;;;;;;;;;;;;-140.72;100.00;52439.56;5032947;28;19933;-67
2022/07/05 01:06:07;;;;;;;;;;;;;;;-140.72;100.00;52396.94;5026740;28;19921;-67
2022/07/05 01:08:34;;;;;;;;;;;;;;;-140.72;100.00;52451.72;5031720;28;19918;-68
2022/07/05 01:11:00;;;;;;;;;;;;;;;-140.72;100.00;52447.69;5033671;28;19944;-68
2022/07/05 01:13:25;;;;;;;;;;;;;;;-140.72;100.00;52407.09;5031115;28;19917;-68
2022/07/05 01:15:51;;;;;;;;;;;;;;;-140.72;100.00;52415.22;5026418;28;19925;-68
2022/07/05 01:18:16;;;;;;;;;;;;;;;-140.72;100.00;52423.31;5031492;28;19905;-67
2022/07/05 01:20:41;;;;;;;;;;;;;;;-140.72;100.00;52449.72;5032231;28;19960;-69
2022/07/05 01:23:07;;;;;;;;;;;;;;;-140.72;100.00;52431.44;5028384;28;19929;-66
2022/07/05 01:25:32;;;;;;;;;;;;;;;-140.72;100.00;52409.13;5028544;28;19956;-68
2022/07/05 01:27:59;;;;;;;;;;;;;;;-140.72;100.00;52413.19;5030305;28;19917;-68
2022/07/05 01:30:24;;;;;;;;;;;;;;;-140.72;100.00;52417.25;5028732;28;19917;-68
2022/07/05 01:32:49;;;;;;;;;;;;;;;-140.72;100.00;52405.06;5028868;28;19912;-69
2022/07/05 01:35:23;;;;;;;;;;;;;;;-140.72;100.00;52443.63;5029404;28;19963;-68
2022/07/05 01:37:48;;;;;;;;;;;;;;;-140.72;100.00;52429.41;5029899;28;19980;-67
2022/07/05 01:40:14;;;;;;;;;;;;;;;-140.72;100.00;52449.72;5033109;28;19921;-67
2022/07/05 01:42:39;;;;;;;;;;;;;;;-140.72;100.00;52455.78;5035055;28;19921;-68
2022/07/05 01:45:05;;;;;;;;;;;;;;;-140.72;100.00;52403.03;5036409;28;19985;-68
2022/07/05 01:47:34;;;;;;;;;;;;;;;-140.72;100.00;52447.69;5036994;28;19929;-68
2022/07/05 01:50:00;;;;;;;;;;;;;;;-140.72;100.00;52443.63;5036716;28;19948;-68
2022/07/05 01:52:27;;;;;;;;;;;;;;;-140.72;100.00;52449.72;5032788;28;19925;-69
2022/07/05 01:54:53;;;;;;;;;;;;;;;-140.72;100.00;52415.22;5026826;28;19957;-68
2022/07/05 01:57:19;;;;;;;;;;;;;;;-140.72;100.00;52435.50;5026708;28;19932;-68
2022/07/05 01:59:44;;;;;;;;;;;;;;;-140.72;100.00;52465.94;5037587;28;19917;-68
2022/07/05 02:02:09;;;;;;;;;;;;;;;-140.72;100.00;52403.03;5050235;28;19914;-68
2022/07/05 02:04:36;;;;;;;;;;;;;;;-140.72;100.00;52425.34;5037532;28;20072;-67
2022/07/05 02:07:05;;;;;;;;;;;;;;;-140.72;100.00;52439.56;5032585;28;19977;-70
2022/07/05 02:09:30;;;;;;;;;;;;;;;-140.72;100.00;52435.50;5041208;28;19935;-68
2022/07/05 02:11:58;;;;;;;;;;;;;;;-140.72;100.00;52403.03;5029114;28;19914;-69
2022/07/05 02:14:23;;;;;;;;;;;;;;;-140.72;100.00;52423.31;5035803;28;19984;-68
2022/07/05 02:16:48;;;;;;;;;;;;;;;-140.72;100.00;52435.50;5030446;28;19917;-70
2022/07/05 02:19:14;;;;;;;;;;;;;;;-140.72;100.00;52437.53;5032856;28;19906;-67
2022/07/05 02:21:39;;;;;;;;;;;;;;;-140.72;100.00;52453.75;5030237;28;20005;-68
2022/07/05 02:24:05;;;;;;;;;;;;;;;-140.72;100.00;52435.50;5034179;28;19914;-68
2022/07/05 02:26:30;;;;;;;;;;;;;;;-140.72;100.00;52419.28;5023832;28;19921;-68
2022/07/05 02:28:55;;;;;;;;;;;;;;;-140.72;100.00;52429.41;5037519;28;19917;-69
2022/07/05 02:31:20;;;;;;;;;;;;;;;-140.72;100.00;52453.75;5036777;28;19917;-67
2022/07/05 02:33:46;;;;;;;;;;;;;;;-140.72;100.00;52486.22;5035837;28;19918;-67
2022/07/05 02:36:12;;;;;;;;;;;;;;;-140.72;100.00;52463.91;5028501;28;19925;-68
2022/07/05 02:38:38;;;;;;;;;;;;;;;-140.72;100.00;52437.53;5030616;28;19928;-69
2022/07/05 02:41:06;;;;;;;;;;;;;;;-140.72;100.00;52427.38;5026730;28;19941;-68
2022/07/05 02:43:31;;;;;;;;;;;;;;;-140.72;100.00;52439.56;5032682;28;19917;-69
2022/07/05 02:45:56;;;;;;;;;;;;;;;-140.72;100.00;52423.31;5032109;28;19928;-67
2022/07/05 02:48:22;;;;;;;;;;;;;;;-140.72;100.00;52421.28;5028312;28;19922;-68
2022/07/05 02:50:47;;;;;;;;;;;;;;;-140.72;100.00;52415.22;5023336;28;19921;-68
2022/07/05 02:53:13;;;;;;;;;;;;;;;-140.72;100.00;52439.56;5026586;28;19917;-68
2022/07/05 02:55:38;;;;;;;;;;;;;;;-140.72;100.00;52437.53;5029513;28;19918;-70
2022/07/05 02:58:03;;;;;;;;;;;;;;;-140.72;100.00;52413.19;5017052;28;19961;-71
2022/07/05 03:00:28;;;;;;;;;;;;;;;-140.72;100.00;52431.44;5030163;28;19918;-70
2022/07/05 03:02:53;;;;;;;;;;;;;;;-140.72;100.00;52439.56;5035601;28;19917;-68
2022/07/05 03:05:19;;;;;;;;;;;;;;;-140.72;100.00;52474.06;5025344;28;19935;-68
2022/07/05 03:07:44;;;;;;;;;;;;;;;-140.72;100.00;52449.72;5029752;28;19905;-67
2022/07/05 03:10:09;;;;;;;;;;;;;;;-140.72;100.00;52472.03;5027520;28;19973;-69
2022/07/05 03:12:34;;;;;;;;;;;;;;;-140.72;100.00;52472.03;5036170;28;19925;-67
2022/07/05 03:14:59;;;;;;;;;;;;;;;-140.72;100.00;52439.56;5035843;28;19952;-67
2022/07/05 03:17:25;;;;;;;;;;;;;;;-140.72;100.00;52407.09;5036790;28;20077;-68
2022/07/05 03:19:50;;;;;;;;;;;;;;;-140.72;100.00;52435.50;5036536;28;19941;-67
2022/07/05 03:22:15;;;;;;;;;;;;;;;-140.72;100.00;52419.28;5036721;28;19940;-68
2022/07/05 03:24:40;;;;;;;;;;;;;;;-140.72;100.00;52421.28;5034873;28;19997;-68
2022/07/05 03:27:05;;;;;;;;;;;;;;;-140.72;100.00;52415.22;5035577;28;19917;-68
2022/07/05 03:29:31;;;;;;;;;;;;;;;-140.72;100.00;52427.38;5036021;28;19947;-69
2022/07/05 03:31:56;;;;;;;;;;;;;;;-140.72;100.00;52445.66;5036250;28;19921;-68
2022/07/05 03:34:21;;;;;;;;;;;;;;;-140.72;100.00;52445.66;5033905;28;19918;-68
2022/07/05 03:36:46;;;;;;;;;;;;;;;-140.72;100.00;52455.78;5036538;28;19917;-67
2022/07/05 03:39:12;;;;;;;;;;;;;;;-140.72;100.00;52439.56;5044410;28;19914;-67
2022/07/05 03:41:37;;;;;;;;;;;;;;;-140.72;100.00;52447.69;5026430;28;19929;-68
2022/07/05 03:44:03;;;;;;;;;;;;;;;-140.72;100.00;52407.09;5035623;28;19932;-68
2022/07/05 03:46:28;;;;;;;;;;;;;;;-140.72;100.00;52411.16;5035034;28;20039;-68
2022/07/05 03:48:53;;;;;;;;;;;;;;;-140.72;100.00;52403.03;5032690;28;19917;-70
2022/07/05 03:51:18;;;;;;;;;;;;;;;-140.72;100.00;52407.09;5024069;28;20021;-68
2022/07/05 03:53:43;;;;;;;;;;;;;;;-140.72;100.00;52396.94;5030858;28;19917;-67
2022/07/05 03:56:09;;;;;;;;;;;;;;;-140.72;100.00;52455.78;5028934;28;19941;-68
2022/07/05 03:58:34;;;;;;;;;;;;;;;-140.72;100.00;52401.00;5035554;28;19922;-68
2022/07/05 04:00:59;;;;;;;;;;;;;;;-140.72;100.00;52431.44;5026578;28;19969;-68
2022/07/05 04:03:24;;;;;;;;;;;;;;;-140.72;100.00;52437.53;5028766;28;19921;-69
2022/07/05 04:05:50;;;;;;;;;;;;;;;-140.72;100.00;52427.38;5028594;28;19917;-68
2022/07/05 04:08:15;;;;;;;;;;;;;;;-140.72;100.00;52431.44;5035729;28;19957;-67
2022/07/05 04:10:40;;;;;;;;;;;;;;;-140.72;100.00;52427.38;5035001;28;19909;-68
2022/07/05 04:13:05;;;;;;;;;;;;;;;-140.72;100.00;52423.31;5034775;28;19917;-68
2022/07/05 04:15:31;;;;;;;;;;;;;;;-140.72;100.00;52433.47;5034790;28;19922;-69
2022/07/05 04:17:56;;;;;;;;;;;;;;;-140.72;100.00;52451.72;5034972;28;20098;-68
2022/07/05 04:20:24;;;;;;;;;;;;;;;-140.72;100.00;52437.53;5035239;28;19918;-70
2022/07/05 04:22:49;;;;;;;;;;;;;;;-140.72;100.00;52445.66;5033740;28;19922;-69
2022/07/05 04:25:17;;;;;;;;;;;;;;;-140.72;100.00;52423.31;5026774;28;19917;-68
2022/07/05 04:27:49;;;;;;;;;;;;;;;-140.72;100.00;52429.41;5031415;28;19918;-69
2022/07/05 04:30:15;;;;;;;;;;;;;;;-140.72;100.00;52447.69;5027197;28;19917;-68
2022/07/05 04:32:41;;;;;;;;;;;;;;;-140.72;100.00;52407.09;5029147;28;19920;-69
2022/07/05 04:35:06;;;;;;;;;;;;;;;-140.72;100.00;52427.38;5028151;28;19922;-69
2022/07/05 04:37:32;;;;;;;;;;;;;;;-140.72;100.00;52405.06;5031374;28;19922;-68
2022/07/05 04:39:57;;;;;;;;;;;;;;;-140.72;100.00;52433.47;5025161;28;19918;-67
2022/07/05 04:42:22;;;;;;;;;;;;;;;-140.72;100.00;52445.66;5026575;28;19917;-68
2022/07/05 04:44:47;;;;;;;;;;;;;;;-140.72;100.00;52398.97;5027202;28;19921;-68
2022/07/05 04:47:12;;;;;;;;;;;;;;;-140.72;100.00;52405.06;5033744;28;19917;-67
2022/07/05 04:49:38;;;;;;;;;;;;;;;-140.72;100.00;52431.44;5033430;28;19917;-69
2022/07/05 04:52:03;;;;;;;;;;;;;;;-140.72;100.00;52415.22;5031855;28;19918;-68
2022/07/05 04:54:28;;;;;;;;;;;;;;;-140.72;100.00;52417.25;5025569;28;19917;-67
2022/07/05 04:56:53;;;;;;;;;;;;;;;-140.72;100.00;52384.78;5028203;28;19917;-69
2022/07/05 04:59:19;;;;;;;;;;;;;;;-140.72;100.00;52396.94;5027037;28;19973;-67
2022/07/05 05:01:44;;;;;;;;;;;;;;;-140.72;100.00;52382.75;5032156;28;19917;-68
2022/07/05 05:04:09;;;;;;;;;;;;;;;-140.72;100.00;52368.53;5031750;28;19917;-69
2022/07/05 05:06:34;;;;;;;;;;;;;;;-140.72;100.00;52384.78;5022058;28;19986;-75
2022/07/05 05:09:00;;;;;;;;;;;;;;;-140.72;100.00;52405.06;5019749;28;19917;-69
2022/07/05 05:11:25;;;;;;;;;;;;;;;-140.72;100.00;52378.69;5011722;28;20057;-70
2022/07/05 05:13:50;;;;;;;;;;;;;;;-140.72;100.00;52390.84;5015879;28;19924;-69
2022/07/05 05:16:15;;;;;;;;;;;;;;;-140.72;100.00;52378.69;5022381;28;19937;-69
2022/07/05 05:18:41;;;;;;;;;;;;;;;-140.72;100.00;52378.69;5017746;28;19971;-69
2022/07/05 05:21:06;;;;;;;;;;;;;;;-140.72;100.00;52368.53;5009025;28;19937;-69
2022/07/05 05:23:31;;;;;;;;;;;;;;;-140.72;100.00;52346.22;5021315;28;19945;-69
2022/07/05 05:25:57;;;;;;;;;;;;;;;-140.72;100.00;52374.63;5022900;28;19917;-69
2022/07/05 05:28:22;;;;;;;;;;;;;;;-140.72;100.00;52370.56;5006125;28;19918;-70
2022/07/05 05:30:47;;;;;;;;;;;;;;;-140.72;100.00;52344.19;5011131;28;20060;-70
2022/07/05 05:33:12;;;;;;;;;;;;;;;-140.72;100.00;52327.97;5013733;28;20402;-70
2022/07/05 05:35:38;;;;;;;;;;;;;;;-140.72;100.00;52332.03;5000558;28;19918;-69
2022/07/05 05:38:03;;;;;;;;;;;;;;;-140.72;100.00;52392.88;5002392;28;20014;-68
2022/07/05 05:40:29;;;;;;;;;;;;;;;-140.72;100.00;52354.34;5007822;28;19952;-70
2022/07/05 05:42:55;;;;;;;;;;;;;;;-140.72;100.00;52354.34;5022274;28;19945;-69
2022/07/05 05:45:21;;;;;;;;;;;;;;;-140.72;100.00;52338.09;5012575;28;20008;-68
2022/07/05 05:47:50;;;;;;;;;;;;;;;-140.72;100.00;52362.44;5014353;28;20418;-69
2022/07/05 05:50:19;;;;;;;;;;;;;;;-140.72;100.00;52370.56;5015301;28;20387;-68
2022/07/05 05:52:44;;;;;;;;;;;;;;;-140.72;100.00;52344.19;5014714;28;19973;-70
2022/07/05 05:55:10;;;;;;;;;;;;;;;-140.72;100.00;52370.56;5017714;28;19937;-70
2022/07/05 05:57:36;;;;;;;;;;;;;;;-140.72;100.00;52354.34;5005881;28;19921;-68
2022/07/05 06:00:03;;;;;;;;;;;;;;;-140.72;100.00;52313.75;5019959;28;19921;-69
2022/07/05 06:02:28;;;;;;;;;;;;;;;-140.72;100.00;52313.75;5020582;28;19918;-70
2022/07/05 06:04:53;;;;;;;;;;;;;;;-140.72;100.00;52330.00;5011151;28;19927;-70
2022/07/05 06:07:19;;;;;;;;;;;;;;;-140.72;100.00;52354.34;5012356;28;19922;-71
2022/07/05 06:09:44;;;;;;;;;;;;;;;-140.72;100.00;52348.25;5022016;28;19983;-70
2022/07/05 06:12:09;;;;;;;;;;;;;;;-140.72;100.00;52350.28;5021021;28;19918;-70
2022/07/05 06:14:34;;;;;;;;;;;;;;;-140.72;100.00;52332.03;5012538;28;19952;-68
2022/07/05 06:17:00;;;;;;;;;;;;;;;-140.72;100.00;52352.31;5018407;28;19921;-71
2022/07/05 06:19:25;;;;;;;;;;;;;;;-140.72;100.00;52297.53;5030648;28;20483;-71
2022/07/05 06:21:50;;;;;;;;;;;;;;;-140.72;100.00;52305.63;5027083;28;19905;-69
2022/07/05 06:24:15;;;;;;;;;;;;;;;-140.72;100.00;52364.47;5030391;28;19933;-73
2022/07/05 06:26:40;;;;;;;;;;;;;;;-140.72;100.00;52338.09;5018846;28;19922;-71
2022/07/05 06:29:06;;;;;;;;;;;;;;;-140.72;100.00;52265.06;5031633;28;19913;-68
2022/07/05 06:31:31;;;;;;;;;;;;;;;-140.72;100.00;52305.63;5031785;28;19905;-70
2022/07/05 06:33:56;;;;;;;;;;;;;;;-140.72;100.00;52303.59;5028930;28;20008;-68
2022/07/05 06:36:21;;;;;;;;;;;;;;;-140.72;100.00;52295.50;5029030;28;19924;-68
2022/07/05 06:38:47;;;;;;;;;;;;;;;-140.72;100.00;52323.91;5035070;28;19917;-68
2022/07/05 06:41:12;;;;;;;;;;;;;;;-140.72;100.00;52325.94;5034318;28;19980;-67
2022/07/05 06:43:37;;;;;;;;;;;;;;;-140.72;100.00;52297.53;5024856;28;19989;-69
2022/07/05 06:46:02;;;;;;;;;;;;;;;-140.72;100.00;52277.22;5015308;28;19981;-68
2022/07/05 06:48:28;;;;;;;;;;;;;;;-140.72;100.00;52295.50;5027374;28;19918;-69
2022/07/05 06:50:53;;;;;;;;;;;;;;;-140.72;100.00;52256.94;5028450;28;19918;-68
2022/07/05 06:53:18;;;;;;;;;;;;;;;-140.72;100.00;52325.94;5018088;28;19954;-68
2022/07/05 06:55:46;;;;;;;;;;;;;;;-140.72;100.00;52309.69;5035179;28;19917;-68
2022/07/05 06:58:12;;;;;;;;;;;;;;;-140.72;100.00;52283.31;5020480;28;20004;-68
2022/07/05 07:00:37;;;;;;;;;;;;;;;-140.72;100.00;52293.47;5035066;28;20394;-68
2022/07/05 07:03:02;;;;;;;;;;;;;;;-140.72;100.00;52293.47;5021625;28;19953;-68
2022/07/05 07:05:27;;;;;;;;;;;;;;;-140.72;100.00;52315.78;5024019;28;19917;-68
2022/07/05 07:10:36;;;;;;;;;;;;;;;-140.72;100.00;52287.38;5033221;28;19916;-67
2022/07/05 07:13:02;;;;;;;;;;;;;;;-140.72;100.00;52242.75;5035219;28;19917;-68
2022/07/05 07:15:28;;;;;;;;;;;;;;;-140.72;100.00;52301.59;5021912;28;19929;-68
2022/07/05 07:17:53;;;;;;;;;;;;;;;-140.72;100.00;52275.19;5033258;28;19917;-68
2022/07/05 07:20:19;;;;;;;;;;;;;;;-140.72;100.00;52250.84;5033258;28;20445;-67
2022/07/05 07:22:44;;;;;;;;;;;;;;;-140.72;100.00;52275.19;5026458;28;19925;-67
2022/07/05 07:25:11;;;;;;;;;;;;;;;-140.72;100.00;52287.38;5029303;28;19917;-67
2022/07/05 07:27:42;;;;;;;;;;;;;;;-140.72;100.00;52265.06;5026282;28;19929;-67
2022/07/05 07:30:08;;;;;;;;;;;;;;;-140.72;100.00;52220.41;5031220;28;19960;-67
2022/07/05 07:32:34;;;;;;;;;;;;;;;-140.72;100.00;52289.41;5024462;28;19989;-68
2022/07/05 07:34:59;;;;;;;;;;;;;;;-140.72;100.00;52277.22;5015498;28;19989;-69
2022/07/05 07:37:24;;;;;;;;;;;;;;;-140.72;100.00;52248.81;5014784;28;19952;-69
2022/07/05 07:39:49;;;;;;;;;;;;;;;-140.72;100.00;52277.22;5028387;28;19925;-68
2022/07/05 07:42:14;;;;;;;;;;;;;;;-140.72;100.00;52236.66;5015028;28;19926;-69
2022/07/05 07:44:40;;;;;;;;;;;;;;;-140.72;100.00;52248.81;5016580;28;19993;-68
2022/07/05 07:47:05;;;;;;;;;;;;;;;-140.72;100.00;52248.81;5024583;28;19918;-69
2022/07/05 07:49:30;;;;;;;;;;;;;;;-140.72;100.00;52208.25;5025979;28;19983;-68
2022/07/05 07:51:55;;;;;;;;;;;;;;;-140.72;100.00;52258.97;5021171;28;19921;-71
2022/07/05 07:54:21;;;;;;;;;;;;;;;-140.72;100.00;52309.69;5008159;28;20392;-71
2022/07/05 07:56:46;;;;;;;;;;;;;;;-140.72;100.00;52297.53;5009899;28;19928;-71
2022/07/05 07:59:11;;;;;;;;;;;;;;;-140.72;100.00;52248.81;5006434;28;19997;-72
2022/07/05 08:01:37;;;;;;;;;;;;;;;-140.72;100.00;52220.41;5001478;28;19917;-71
2022/07/05 08:04:02;;;;;;;;;;;;;;;-140.72;100.00;52228.53;5012544;28;19929;-71
2022/07/05 08:06:27;;;;;;;;;;;;;;;-140.72;100.00;52240.72;5020401;28;20436;-78
2022/07/05 08:08:52;;;;;;;;;;;;;;;-140.72;100.00;52252.88;5015358;28;20454;-72
2022/07/05 08:11:18;;;;;;;;;;;;;;;-140.72;100.00;52212.31;5008830;28;19918;-72
2022/07/05 08:13:43;;;;;;;;;;;;;;;-140.72;100.00;52179.84;5017514;28;20083;-70
2022/07/05 08:16:09;;;;;;;;;;;;;;;-140.72;100.00;52204.19;5007957;28;19957;-71
2022/07/05 08:24:03;;;;;;;;;;;;;;;-140.72;100.00;52236.66;5013506;28;19929;-71
2022/07/05 08:26:30;;;;;;;;;;;;;;;-140.72;100.00;52185.94;5010299;28;19972;-73
2022/07/05 08:28:58;;;;;;;;;;;;;;;-140.72;100.00;52179.84;4999489;28;19926;-74
2022/07/05 08:31:24;;;;;;;;;;;;;;;-140.72;100.00;52175.78;5007121;28;19949;-71
2022/07/05 08:33:49;;;;;;;;;;;;;;;-140.72;100.00;52167.66;5008099;28;19918;-73
2022/07/05 08:36:14;;;;;;;;;;;;;;;-140.72;100.00;52252.88;5009271;28;19917;-72
2022/07/05 08:38:39;;;;;;;;;;;;;;;-140.72;100.00;52226.50;5009972;28;19973;-72
2022/07/05 08:41:07;;;;;;;;;;;;;;;-140.72;100.00;52189.97;5011741;28;19921;-73
2022/07/05 08:43:33;;;;;;;;;;;;;;;-140.72;100.00;52192.00;5011317;28;19917;-74
2022/07/05 08:45:59;;;;;;;;;;;;;;;-140.72;100.00;52143.31;5015582;28;20016;-74
2022/07/05 08:48:26;;;;;;;;;;;;;;;-140.72;100.00;52234.63;5010099;28;20385;-72
2022/07/05 08:50:52;;;;;;;;;;;;;;;-140.72;100.00;52194.03;5009343;28;20017;-73
2022/07/05 08:53:18;;;;;;;;;;;;;;;-140.72;100.00;52147.38;5004858;28;20012;-72
2022/07/05 08:55:44;;;;;;;;;;;;;;;-140.72;100.00;52151.44;5004146;28;19921;-74
2022/07/05 08:58:09;;;;;;;;;;;;;;;-140.72;100.00;52143.31;5008528;28;19922;-72
2022/07/05 09:00:36;;;;;;;;;;;;;;;-140.72;100.00;52149.41;5007740;28;20453;-69
2022/07/05 09:03:01;;;;;;;;;;;;;;;-140.72;100.00;52189.97;5006716;28;19921;-74
2022/07/05 09:05:28;;;;;;;;;;;;;;;-140.72;100.00;52151.44;5007520;28;20079;-70
2022/07/05 09:08:03;;;;;;;;;;;;;;;-140.72;100.00;52127.09;5035742;28;19954;-74
2022/07/05 09:10:30;;;;;;;;;;;;;;;-140.72;100.00;52047.97;5034126;28;20012;-70
2022/07/05 09:12:56;;;;;;;;;;;;;;;-140.72;100.00;52070.28;5018527;28;19918;-71
2022/07/05 09:15:22;;;;;;;;;;;;;;;-140.72;100.00;52123.03;5025340;28;19987;-71
2022/07/05 09:17:47;;;;;;;;;;;;;;;-140.72;100.00;52169.69;5015160;28;19918;-71
2022/07/05 09:20:14;;;;;;;;;;;;;;;-140.72;100.00;52173.75;5017923;28;19922;-72
2022/07/05 09:22:52;;;;;;;;;;;;;;;-140.72;100.00;52090.56;5030431;28;19929;-70
2022/07/05 09:25:19;;;;;;;;;;;;;;;-140.72;100.00;52106.78;5020035;28;19969;-72
2022/07/05 09:27:52;;;;;;;;;;;;;;;-140.72;100.00;52123.03;5024629;28;19927;-71
2022/07/05 09:30:24;;;;;;;;;;;;;;;-140.72;100.00;52118.97;5023665;28;19928;-71
2022/07/05 09:33:00;;;;;;;;;;;;;;;-140.72;100.00;52054.03;5028195;28;19921;-72
2022/07/05 09:35:25;;;;;;;;;;;;;;;-140.72;100.00;52021.56;5033404;28;19940;-69
2022/07/05 09:37:51;;;;;;;;;;;;;;;-140.72;100.00;52072.31;5034310;28;19936;-70
2022/07/05 09:40:16;;;;;;;;;;;;;;;-140.72;100.00;52029.69;5033514;28;19960;-70
2022/07/05 09:42:42;;;;;;;;;;;;;;;-140.72;100.00;52058.09;5031781;28;19993;-72
2022/07/05 09:45:08;;;;;;;;;;;;;;;-140.72;100.00;52098.69;5024819;28;19916;-72
2022/07/05 09:47:33;;;;;;;;;;;;;;;-140.72;100.00;52082.44;5027616;28;19994;-72
2022/07/05 09:50:06;;;;;;;;;;;;;;;-140.72;100.00;52015.50;5033885;28;19947;-71
2022/07/05 09:52:36;;;;;;;;;;;;;;;-140.72;100.00;52104.75;5021573;28;19969;-73
2022/07/05 09:55:09;;;;;;;;;;;;;;;-140.72;100.00;52102.75;5025730;28;19960;-71
2022/07/05 09:57:35;;;;;;;;;;;;;;;-140.72;100.00;52072.31;5020932;28;19975;-71
2022/07/05 10:00:01;;;;;;;;;;;;;;;-140.72;100.00;51974.91;5030441;28;20075;-70
2022/07/05 10:02:44;;;;;;;;;;;;;;;-140.72;100.00;52031.72;5030514;28;19914;-71
2022/07/05 10:05:14;;;;;;;;;;;;;;;-140.72;100.00;51914.03;5020318;28;19916;-70
2022/07/05 10:07:47;;;;;;;;;;;;;;;-140.72;100.00;52025.63;5030911;28;19917;-70
2022/07/05 10:10:17;;;;;;;;;;;;;;;-140.72;100.00;51968.81;5034480;28;19917;-71
2022/07/05 10:12:43;;;;;;;;;;;;;;;-140.72;100.00;51916.06;5034438;28;19917;-73
2022/07/05 10:15:12;;;;;;;;;;;;;;;-140.72;100.00;52049.97;5034282;28;19925;-72
2022/07/05 10:17:42;;;;;;;;;;;;;;;-140.72;100.00;52131.16;5024882;28;19933;-72
2022/07/05 10:20:29;;;;;;;;;;;;;;;-140.72;100.00;51997.22;5029278;28;19905;-72
2022/07/05 10:22:56;;;;;;;;;;;;;;;-140.72;100.00;51972.88;5026330;28;20363;-72
2022/07/05 10:25:22;;;;;;;;;;;;;;;-140.72;100.00;51954.63;5032073;28;19962;-73
2022/07/05 10:27:48;;;;;;;;;;;;;;;-140.72;100.00;51989.13;5025219;28;19928;-72
2022/07/05 10:30:15;;;;;;;;;;;;;;;-140.72;100.00;52054.03;5022657;28;19917;-72
2022/07/05 10:32:40;;;;;;;;;;;;;;;-140.72;100.00;51910.00;5032463;28;19910;-73
2022/07/05 10:35:06;;;;;;;;;;;;;;;-140.72;100.00;51877.53;5033211;28;20036;-73
2022/07/05 10:37:33;;;;;;;;;;;;;;;-140.72;100.00;51962.75;5028239;28;19909;-71
2022/07/05 10:39:59;;;;;;;;;;;;;;;-140.72;100.00;52003.31;5028736;28;19953;-72
2022/07/05 10:42:25;;;;;;;;;;;;;;;-140.72;100.00;51942.44;5033600;28;19955;-72
2022/07/05 10:44:51;;;;;;;;;;;;;;;-140.72;100.00;52086.50;5025866;28;19992;-71
2022/07/05 10:47:18;;;;;;;;;;;;;;;-140.72;100.00;51895.78;5026537;28;19972;-71
2022/07/05 10:49:43;;;;;;;;;;;;;;;-140.72;100.00;51843.03;5026043;28;19927;-71
2022/07/05 10:52:25;;;;;;;;;;;;;;;-140.72;100.00;51952.59;5032252;28;19957;-70
2022/07/05 10:55:20;;;;;;;;;;;;;;;-140.72;100.00;51930.28;5025894;28;19978;-72
2022/07/05 10:58:05;;;;;;;;;;;;;;;-140.72;100.00;51808.53;5009735;28;20076;-70
2022/07/05 11:00:30;;;;;;;;;;;;;;;-140.72;100.00;51916.06;5016544;28;19921;-68
2022/07/05 11:03:27;;;;;;;;;;;;;;;-140.72;100.00;51944.47;5026019;28;19945;-69
2022/07/05 11:05:54;;;;;;;;;;;;;;;-140.72;100.00;51930.28;5015756;28;19980;-69
2022/07/05 11:08:20;;;;;;;;;;;;;;;-140.72;100.00;51960.72;5020970;28;19945;-71
2022/07/05 11:11:04;;;;;;;;;;;;;;;-140.72;100.00;52019.56;5027111;28;19921;-68
2022/07/05 11:13:37;;;;;;;;;;;;;;;-140.72;100.00;51938.41;5028643;28;19928;-68
2022/07/05 11:16:21;;;;;;;;;;;;;;;-140.72;100.00;51997.22;5020330;28;20015;-68
2022/07/05 11:18:46;;;;;;;;;;;;;;;-140.72;100.00;51763.91;5019403;28;19917;-68
2022/07/05 11:21:18;;;;;;;;;;;;;;;-140.72;100.00;51812.59;5021519;28;19917;-69
2022/07/05 11:23:44;;;;;;;;;;;;;;;-140.72;100.00;51725.38;5025600;28;19918;-68
2022/07/05 11:26:10;;;;;;;;;;;;;;;-140.72;100.00;51806.53;5025030;28;19933;-70
2022/07/05 11:28:46;;;;;;;;;;;;;;;-140.72;100.00;51873.47;5018380;28;19929;-67
2022/07/05 11:31:11;;;;;;;;;;;;;;;-140.72;100.00;51763.91;5019345;28;19925;-69
2022/07/05 11:33:38;;;;;;;;;;;;;;;-140.72;100.00;51818.69;5021531;28;19925;-69
2022/07/05 11:36:04;;;;;;;;;;;;;;;-140.72;100.00;51751.75;5023474;28;19924;-69
2022/07/05 11:38:30;;;;;;;;;;;;;;;-140.72;100.00;51802.47;5019192;28;19917;-69
2022/07/05 11:41:09;;;;;;;;;;;;;;;-140.72;100.00;51747.69;5019608;28;19973;-70
2022/07/05 11:43:35;;;;;;;;;;;;;;;-140.72;100.00;51739.56;5017634;28;20015;-77
2022/07/05 11:46:00;;;;;;;;;;;;;;;-140.72;100.00;51774.06;5018581;28;19932;-69
2022/07/05 11:48:29;;;;;;;;;;;;;;;-140.72;92.92;51843.03;5027567;28;19921;-69
2022/07/05 11:50:54;;;;;;;;;;;;;;;-140.72;90.90;51642.19;5022657;28;20497;-69
2022/07/05 11:53:27;;;;;;;;;;;;;;;-140.72;100.00;51751.75;5023201;28;19957;-70
2022/07/05 11:55:59;;;;;;;;;;;;;;;-140.72;96.13;51853.19;5012447;28;19980;-70
2022/07/05 11:58:31;;;;;;;;;;;;;;;-140.72;100.00;51855.22;5020859;28;19984;-71
2022/07/05 12:00:57;;;;;;;;;;;;;;;-140.72;100.00;51826.81;5017586;28;19927;-74
2022/07/05 12:03:22;;;;;;;;;;;;;;;-140.72;100.00;51853.19;5019305;28;19984;-69
2022/07/05 12:05:47;;;;;;;;;;;;;;;-140.72;100.00;51749.72;5019938;28;19968;-70
2022/07/05 12:08:19;;;;;;;;;;;;;;;-140.72;100.00;51879.56;5013570;28;19921;-69
2022/07/05 12:13:41;;;;;;;;;;;;;;;-140.72;100.00;51985.06;5014030;28;19963;-70
2022/07/05 12:16:07;;;;;;;;;;;;;;;-140.72;100.00;51993.19;5026285;28;20021;-69
2022/07/05 12:18:45;;;;;;;;;;;;;;;-140.72;100.00;51989.13;5022713;28;19918;-70
2022/07/05 12:21:14;;;;;;;;;;;;;;;-140.72;100.00;51995.19;5014700;28;19969;-70
2022/07/05 12:23:41;;;;;;;;;;;;;;;-140.72;100.00;52090.56;5011648;28;20043;-71
2022/07/05 12:26:06;;;;;;;;;;;;;;;-140.72;100.00;52090.56;5020893;28;20347;-74